Time;durP1;ratioP1;P1;durP2;ratioP2;P2;SDS_P1;SDS_P2;PMS_P1;PMS_P2;Temp;Humidity;BMP_temperature;BMP_pressure;BME280_temperature;BME280_humidity;BME280_pressure;Samples;Min_cycle;Max_cycle;Signal;HPM_P1;HPM_P2
2023/06/30 00:00:15;;;;;;;28.73;24.20;;;;;;;;;;612216;23;1216;-73
2023/06/30 00:00:34;;;;;;;28.55;24.33;;;;;;;;;;615634;23;1478;-73
2023/06/30 00:00:50;;;;;;;27.95;23.98;;;;;;;;;;616040;23;1453;-73
2023/06/30 00:01:06;;;;;;;29.00;24.30;;;;;;;;;;615592;23;836;-73
2023/06/30 00:01:21;;;;;;;26.98;23.90;;;;;;;;;;617831;23;1278;-73
2023/06/30 00:01:39;;;;;;;26.90;24.00;;;;;;;;;;619232;23;1683;-73
2023/06/30 00:01:55;;;;;;;28.10;24.35;;;;;;;;;;616085;23;1380;-73
2023/06/30 00:02:14;;;;;;;28.30;24.23;;;;;;;;;;612395;23;1262;-73
2023/06/30 00:02:35;;;;;;;28.52;23.67;;;;;;;;;;608646;23;1500;-73
2023/06/30 00:02:55;;;;;;;28.90;24.58;;;;;;;;;;609948;23;1321;-73
2023/06/30 00:03:11;;;;;;;28.45;23.88;;;;;;;;;;608875;23;859;-73
2023/06/30 00:03:27;;;;;;;29.38;24.15;;;;;;;;;;610929;23;1161;-73
2023/06/30 00:03:45;;;;;;;30.63;24.98;;;;;;;;;;613466;23;1414;-73
2023/06/30 00:04:12;;;;;;;28.75;24.65;;;;;;;;;;612452;23;1296;-73
2023/06/30 00:04:30;;;;;;;31.73;26.08;;;;;;;;;;613857;23;1447;-72
2023/06/30 00:04:48;;;;;;;32.85;25.98;;;;;;;;;;610502;23;1495;-73
2023/06/30 00:05:11;;;;;;;30.90;25.02;;;;;;;;;;610513;23;824;-73
2023/06/30 00:05:27;;;;;;;31.58;26.08;;;;;;;;;;609772;23;1209;-73
2023/06/30 00:05:43;;;;;;;33.55;27.08;;;;;;;;;;613792;23;844;-73
2023/06/30 00:05:59;;;;;;;33.58;26.38;;;;;;;;;;612205;23;1332;-73
2023/06/30 00:06:15;;;;;;;33.25;25.85;;;;;;;;;;611856;23;1546;-73
2023/06/30 00:06:33;;;;;;;33.72;26.17;;;;;;;;;;612918;23;1929;-73
2023/06/30 00:07:15;;;;;;;33.15;26.48;;;;;;;;;;610573;23;1406;-74
2023/06/30 00:07:32;;;;;;;33.88;26.48;;;;;;;;;;613068;23;895;-72
2023/06/30 00:07:58;;;;;;;31.83;25.77;;;;;;;;;;614438;23;868;-72
2023/06/30 00:08:17;;;;;;;32.75;26.55;;;;;;;;;;614206;23;1610;-72
2023/06/30 00:08:35;;;;;;;32.47;26.45;;;;;;;;;;616052;23;1455;-72
2023/06/30 00:09:04;;;;;;;33.17;26.08;;;;;;;;;;615940;23;1326;-73
2023/06/30 00:10:06;;;;;;;33.60;26.80;;;;;;;;;;608629;23;816;-72
2023/06/30 00:10:08;;;;;;;34.72;27.17;;;;;;;;;;612457;23;1126;-73
2023/06/30 00:10:22;;;;;;;31.05;25.77;;;;;;;;;;611851;23;1091;-72
2023/06/30 00:10:42;;;;;;;29.95;25.50;;;;;;;;;;615523;23;1261;-72
2023/06/30 00:11:07;;;;;;;31.38;26.73;;;;;;;;;;615400;23;1308;-72
2023/06/30 00:11:28;;;;;;;34.45;27.40;;;;;;;;;;617177;23;1197;-73
2023/06/30 00:11:46;;;;;;;34.05;27.60;;;;;;;;;;618595;23;2062;-72
2023/06/30 00:12:14;;;;;;;34.15;28.15;;;;;;;;;;618076;23;1279;-73
2023/06/30 00:12:37;;;;;;;32.05;27.02;;;;;;;;;;619462;23;1366;-72
2023/06/30 00:12:55;;;;;;;29.95;25.88;;;;;;;;;;618393;23;1263;-73
2023/06/30 00:13:15;;;;;;;33.17;26.77;;;;;;;;;;618456;23;1438;-72
2023/06/30 00:13:34;;;;;;;34.67;27.40;;;;;;;;;;618907;23;839;-71
2023/06/30 00:14:01;;;;;;;33.03;27.23;;;;;;;;;;616462;23;1386;-72
2023/06/30 00:14:30;;;;;;;29.35;26.15;;;;;;;;;;612218;23;1229;-71
2023/06/30 00:14:46;;;;;;;31.40;26.38;;;;;;;;;;612050;23;1556;-71
2023/06/30 00:15:06;;;;;;;33.42;26.98;;;;;;;;;;613813;23;1405;-71
2023/06/30 00:15:22;;;;;;;35.13;27.98;;;;;;;;;;612525;23;1248;-72
2023/06/30 00:15:43;;;;;;;32.60;27.20;;;;;;;;;;612688;23;888;-72
2023/06/30 00:16:01;;;;;;;28.33;24.88;;;;;;;;;;616124;23;1711;-72
2023/06/30 00:16:17;;;;;;;26.73;23.80;;;;;;;;;;614470;23;1111;-71
2023/06/30 00:16:33;;;;;;;28.63;25.05;;;;;;;;;;612955;23;1441;-72
2023/06/30 00:16:56;;;;;;;29.63;25.92;;;;;;;;;;610166;23;1340;-72
2023/06/30 00:17:12;;;;;;;30.92;26.65;;;;;;;;;;610373;23;1175;-72
2023/06/30 00:17:28;;;;;;;31.40;26.98;;;;;;;;;;613703;23;1386;-72
2023/06/30 00:17:48;;;;;;;31.67;26.83;;;;;;;;;;615650;23;1444;-73
2023/06/30 00:18:04;;;;;;;33.08;27.70;;;;;;;;;;615793;23;871;-73
2023/06/30 00:18:21;;;;;;;33.20;27.90;;;;;;;;;;615037;23;1220;-72
2023/06/30 00:18:39;;;;;;;32.28;27.13;;;;;;;;;;613417;23;1410;-72
2023/06/30 00:19:19;;;;;;;33.67;27.67;;;;;;;;;;613060;23;1206;-73
2023/06/30 00:19:35;;;;;;;32.08;26.67;;;;;;;;;;612650;23;1291;-72
2023/06/30 00:19:58;;;;;;;31.38;26.58;;;;;;;;;;613066;23;1240;-73
2023/06/30 00:20:14;;;;;;;34.22;28.05;;;;;;;;;;611447;23;1350;-72
2023/06/30 00:20:33;;;;;;;33.30;27.67;;;;;;;;;;614179;23;1208;-73
2023/06/30 00:20:55;;;;;;;33.38;27.17;;;;;;;;;;617081;23;1526;-73
2023/06/30 00:21:11;;;;;;;34.45;28.55;;;;;;;;;;614978;23;1374;-73
2023/06/30 00:21:27;;;;;;;35.08;28.95;;;;;;;;;;613339;23;1454;-72
2023/06/30 00:21:45;;;;;;;36.13;28.23;;;;;;;;;;616562;23;1372;-72
2023/06/30 00:22:13;;;;;;;35.42;28.17;;;;;;;;;;613362;23;1287;-72
2023/06/30 00:22:28;;;;;;;32.40;27.05;;;;;;;;;;613231;23;1828;-73
2023/06/30 00:22:44;;;;;;;33.55;27.63;;;;;;;;;;613284;23;1082;-72
2023/06/30 00:23:00;;;;;;;32.63;27.60;;;;;;;;;;612388;23;1405;-72
2023/06/30 00:23:17;;;;;;;35.58;28.25;;;;;;;;;;612186;23;1396;-73
2023/06/30 00:23:33;;;;;;;37.42;29.02;;;;;;;;;;614727;23;875;-73
2023/06/30 00:23:52;;;;;;;36.78;29.23;;;;;;;;;;613149;23;1336;-72
2023/06/30 00:24:14;;;;;;;37.35;29.17;;;;;;;;;;616837;23;860;-72
2023/06/30 00:24:29;;;;;;;33.03;27.88;;;;;;;;;;613114;23;1146;-72
2023/06/30 00:24:47;;;;;;;32.15;26.83;;;;;;;;;;615816;23;939;-72
2023/06/30 00:25:02;;;;;;;32.83;27.58;;;;;;;;;;616799;23;844;-73
2023/06/30 00:25:18;;;;;;;30.52;26.52;;;;;;;;;;614857;23;1373;-72
2023/06/30 00:25:43;;;;;;;28.67;25.42;;;;;;;;;;615656;23;1327;-72
2023/06/30 00:26:01;;;;;;;33.45;27.50;;;;;;;;;;616381;23;1497;-73
2023/06/30 00:26:27;;;;;;;34.10;28.75;;;;;;;;;;614683;23;1289;-72
2023/06/30 00:26:43;;;;;;;35.15;29.10;;;;;;;;;;612968;23;1597;-72
2023/06/30 00:27:17;;;;;;;37.65;29.45;;;;;;;;;;612918;23;1418;-72
2023/06/30 00:27:34;;;;;;;30.50;26.08;;;;;;;;;;615350;23;1330;-72
2023/06/30 00:27:49;;;;;;;27.95;24.63;;;;;;;;;;616796;23;836;-72
2023/06/30 00:28:11;;;;;;;27.55;24.55;;;;;;;;;;618244;23;768;-72
2023/06/30 00:28:27;;;;;;;30.25;25.95;;;;;;;;;;615985;23;1113;-71
2023/06/30 00:28:46;;;;;;;31.67;26.90;;;;;;;;;;616338;23;1321;-72
2023/06/30 00:29:32;;;;;;;32.90;27.98;;;;;;;;;;615269;23;1519;-72
2023/06/30 00:29:51;;;;;;;32.13;27.15;;;;;;;;;;607538;24;1603;-72
2023/06/30 00:30:16;;;;;;;33.67;27.95;;;;;;;;;;607099;24;890;-71
2023/06/30 00:30:32;;;;;;;33.17;27.02;;;;;;;;;;607515;23;1340;-72
2023/06/30 00:30:49;;;;;;;32.72;27.17;;;;;;;;;;612044;23;1540;-72
2023/06/30 00:31:08;;;;;;;34.60;28.10;;;;;;;;;;613217;23;1532;-72
2023/06/30 00:31:30;;;;;;;33.58;28.25;;;;;;;;;;610379;23;1355;-72
2023/06/30 00:31:46;;;;;;;31.58;27.55;;;;;;;;;;609605;23;1912;-73
2023/06/30 00:32:14;;;;;;;31.98;26.83;;;;;;;;;;607570;24;1301;-71
2023/06/30 00:32:32;;;;;;;32.42;27.10;;;;;;;;;;606713;24;1237;-72
2023/06/30 00:32:59;;;;;;;32.83;26.67;;;;;;;;;;607069;24;1262;-71
2023/06/30 00:33:18;;;;;;;33.10;27.50;;;;;;;;;;611215;23;1339;-72
2023/06/30 00:33:38;;;;;;;32.30;27.33;;;;;;;;;;613399;23;1446;-72
2023/06/30 00:33:55;;;;;;;31.25;26.60;;;;;;;;;;611476;23;1362;-72
2023/06/30 00:34:14;;;;;;;33.45;27.45;;;;;;;;;;609326;23;1376;-71
2023/06/30 00:34:33;;;;;;;32.75;27.52;;;;;;;;;;612944;23;1373;-73
2023/06/30 00:34:49;;;;;;;32.85;27.95;;;;;;;;;;613032;23;1710;-71
2023/06/30 00:35:09;;;;;;;32.85;28.20;;;;;;;;;;613189;23;1363;-72
2023/06/30 00:35:25;;;;;;;34.25;28.38;;;;;;;;;;612751;23;1138;-72
2023/06/30 00:35:41;;;;;;;34.42;28.58;;;;;;;;;;613302;23;927;-72
2023/06/30 00:36:23;;;;;;;33.33;28.13;;;;;;;;;;612868;23;1283;-72
2023/06/30 00:36:45;;;;;;;33.47;28.52;;;;;;;;;;610514;23;1502;-72
2023/06/30 00:37:09;;;;;;;31.73;27.73;;;;;;;;;;612585;23;1518;-72
2023/06/30 00:37:35;;;;;;;31.85;27.10;;;;;;;;;;615880;23;1311;-72
2023/06/30 00:37:53;;;;;;;30.48;26.60;;;;;;;;;;617708;23;887;-72
2023/06/30 00:38:13;;;;;;;33.17;28.00;;;;;;;;;;615432;23;1529;-72
2023/06/30 00:38:29;;;;;;;32.78;27.90;;;;;;;;;;614433;23;1507;-71
2023/06/30 00:38:51;;;;;;;33.42;27.98;;;;;;;;;;617025;23;868;-72
2023/06/30 00:39:10;;;;;;;33.47;28.30;;;;;;;;;;615971;23;1086;-72
2023/06/30 00:39:27;;;;;;;34.22;28.60;;;;;;;;;;613242;23;1181;-72
2023/06/30 00:39:43;;;;;;;33.35;28.05;;;;;;;;;;613190;23;1066;-73
2023/06/30 00:40:14;;;;;;;32.30;27.38;;;;;;;;;;610793;23;1509;-72
2023/06/30 00:40:33;;;;;;;33.10;28.27;;;;;;;;;;616269;23;843;-72
2023/06/30 00:40:49;;;;;;;34.55;29.55;;;;;;;;;;613557;23;2044;-72
2023/06/30 00:41:08;;;;;;;33.95;28.80;;;;;;;;;;612190;23;1391;-73
2023/06/30 00:41:35;;;;;;;31.73;27.88;;;;;;;;;;612254;23;1293;-73
2023/06/30 00:41:54;;;;;;;33.33;27.92;;;;;;;;;;611770;23;1533;-72
2023/06/30 00:42:13;;;;;;;33.55;28.33;;;;;;;;;;609701;23;1459;-72
2023/06/30 00:42:29;;;;;;;34.72;28.10;;;;;;;;;;610784;23;1427;-72
2023/06/30 00:42:48;;;;;;;33.75;28.10;;;;;;;;;;609909;23;1562;-72
2023/06/30 00:43:32;;;;;;;32.40;27.95;;;;;;;;;;607629;24;1336;-72
2023/06/30 00:43:51;;;;;;;34.47;29.15;;;;;;;;;;613088;23;1386;-72
2023/06/30 00:44:19;;;;;;;33.75;28.73;;;;;;;;;;615434;23;1240;-74
2023/06/30 00:44:38;;;;;;;37.15;29.35;;;;;;;;;;617495;23;1450;-72
2023/06/30 00:44:59;;;;;;;38.65;29.95;;;;;;;;;;620251;23;831;-72
2023/06/30 00:45:37;;;;;;;32.50;28.02;;;;;;;;;;619555;23;1263;-72
2023/06/30 00:45:56;;;;;;;32.42;28.20;;;;;;;;;;616786;23;1524;-72
2023/06/30 00:46:32;;;;;;;33.60;28.90;;;;;;;;;;616096;23;1312;-72
2023/06/30 00:46:53;;;;;;;35.92;29.30;;;;;;;;;;616578;23;866;-71
2023/06/30 00:47:34;;;;;;;;;;;;;;;;;;;;;
2023/06/30 00:48:17;;;;;;;36.10;28.95;;;;;;;;;;618422;23;1081;-71
2023/06/30 00:48:36;;;;;;;35.70;29.38;;;;;;;;;;605979;24;962;-71
2023/06/30 00:49:10;;;;;;;32.05;27.85;;;;;;;;;;606563;24;1603;-72
2023/06/30 00:49:54;;;;;;;33.33;28.92;;;;;;;;;;610667;23;1449;-72
2023/06/30 00:50:20;;;;;;;35.63;29.60;;;;;;;;;;620687;23;1511;-72
2023/06/30 00:50:47;;;;;;;35.95;29.40;;;;;;;;;;617478;23;1260;-73
2023/06/30 00:51:05;;;;;;;35.55;29.60;;;;;;;;;;620112;23;2023;-72
2023/06/30 00:51:44;;;;;;;33.72;28.58;;;;;;;;;;619660;23;1182;-72
2023/06/30 00:52:13;;;;;;;33.35;28.55;;;;;;;;;;612324;23;1335;-71
2023/06/30 00:52:35;;;;;;;34.00;28.52;;;;;;;;;;620926;23;1128;-72
2023/06/30 00:53:04;;;;;;;32.83;28.23;;;;;;;;;;617536;23;1244;-73
2023/06/30 00:53:21;;;;;;;33.85;27.98;;;;;;;;;;616922;23;1268;-71
2023/06/30 00:53:59;;;;;;;34.47;28.23;;;;;;;;;;614779;23;1533;-72
2023/06/30 00:54:21;;;;;;;33.78;28.73;;;;;;;;;;614390;23;1217;-72
2023/06/30 00:54:37;;;;;;;34.45;28.83;;;;;;;;;;616965;23;1466;-72
2023/06/30 00:54:59;;;;;;;33.67;28.42;;;;;;;;;;617390;23;1366;-72
2023/06/30 00:55:22;;;;;;;32.60;27.85;;;;;;;;;;614023;23;1334;-72
2023/06/30 00:55:44;;;;;;;33.53;28.27;;;;;;;;;;613675;23;1446;-72
2023/06/30 00:56:27;;;;;;;34.10;28.70;;;;;;;;;;611618;23;1284;-73
2023/06/30 00:56:47;;;;;;;33.33;28.40;;;;;;;;;;615894;23;1523;-71
2023/06/30 00:57:11;;;;;;;33.20;28.08;;;;;;;;;;617406;23;1411;-71
2023/06/30 00:57:59;;;;;;;33.20;28.38;;;;;;;;;;618571;23;1249;-71
2023/06/30 00:58:19;;;;;;;34.08;28.75;;;;;;;;;;617878;23;1147;-72
2023/06/30 00:58:42;;;;;;;35.70;29.83;;;;;;;;;;615199;23;1358;-73
2023/06/30 00:59:04;;;;;;;35.67;29.65;;;;;;;;;;617150;23;1407;-72
2023/06/30 00:59:44;;;;;;;35.00;29.08;;;;;;;;;;619170;23;1361;-70
2023/06/30 01:00:17;;;;;;;33.83;29.05;;;;;;;;;;621592;23;932;-72
2023/06/30 01:00:37;;;;;;;33.92;28.35;;;;;;;;;;621186;23;1629;-74
2023/06/30 01:00:59;;;;;;;34.65;28.23;;;;;;;;;;620237;23;1299;-73
2023/06/30 01:01:57;;;;;;;36.47;29.50;;;;;;;;;;619966;23;1391;-72
2023/06/30 01:02:23;;;;;;;34.58;28.92;;;;;;;;;;619589;23;1222;-71
2023/06/30 01:03:19;;;;;;;33.85;28.75;;;;;;;;;;621714;23;1406;-72
2023/06/30 01:03:51;;;;;;;34.83;29.17;;;;;;;;;;626533;23;1280;-72
2023/06/30 01:04:24;;;;;;;35.38;28.80;;;;;;;;;;626028;23;1271;-72
2023/06/30 01:05:15;;;;;;;33.63;29.15;;;;;;;;;;623636;23;1414;-72
2023/06/30 01:06:04;;;;;;;35.33;29.50;;;;;;;;;;610223;23;1459;-73
2023/06/30 01:06:39;;;;;;;36.47;30.15;;;;;;;;;;612196;23;1426;-72
2023/06/30 01:07:44;;;;;;;35.42;29.63;;;;;;;;;;611209;23;1372;-73
2023/06/30 01:08:52;;;;;;;35.13;29.02;;;;;;;;;;600683;24;1564;-73
2023/06/30 01:09:29;;;;;;;34.75;29.35;;;;;;;;;;614264;23;1227;-73
2023/06/30 01:10:43;;;;;;;36.30;29.92;;;;;;;;;;620398;23;924;-72
2023/06/30 01:11:21;;;;;;;35.92;29.50;;;;;;;;;;606668;24;1515;-71
2023/06/30 01:12:06;;;;;;;33.47;29.30;;;;;;;;;;609295;24;1436;-72
2023/06/30 01:12:32;;;;;;;34.97;29.20;;;;;;;;;;606644;24;1275;-72
2023/06/30 01:13:53;;;;;;;33.13;28.80;;;;;;;;;;606133;24;1508;-72
2023/06/30 01:14:35;;;;;;;36.20;29.65;;;;;;;;;;623359;23;1350;-72
2023/06/30 01:15:08;;;;;;;35.17;29.67;;;;;;;;;;626929;23;898;-72
2023/06/30 01:15:25;;;;;;;37.50;31.15;;;;;;;;;;623015;23;1347;-72
2023/06/30 01:16:20;;;;;;;37.28;31.02;;;;;;;;;;623207;23;1275;-73
2023/06/30 01:16:41;;;;;;;34.60;30.73;;;;;;;;;;622272;23;1175;-72
2023/06/30 01:17:28;;;;;;;34.47;30.00;;;;;;;;;;620761;23;1258;-72
2023/06/30 01:18:13;;;;;;;34.65;29.63;;;;;;;;;;614169;23;1370;-73
2023/06/30 01:18:53;;;;;;;34.75;29.85;;;;;;;;;;612287;23;1166;-74
2023/06/30 01:19:44;;;;;;;34.20;28.85;;;;;;;;;;606066;24;1116;-73
2023/06/30 01:20:22;;;;;;;34.63;29.50;;;;;;;;;;605460;24;1652;-72
2023/06/30 01:20:59;;;;;;;34.88;29.48;;;;;;;;;;616785;23;1213;-72
2023/06/30 01:24:33;;;;;;;34.80;29.50;;;;;;;;;;605037;24;1406;-73
2023/06/30 01:25:09;;;;;;;35.47;29.80;;;;;;;;;;618784;23;1237;-73
2023/06/30 01:25:31;;;;;;;36.15;29.90;;;;;;;;;;625345;23;1180;-72
2023/06/30 01:26:16;;;;;;;35.75;29.90;;;;;;;;;;625885;23;1426;-73
2023/06/30 01:26:36;;;;;;;35.25;29.58;;;;;;;;;;625803;23;1946;-73
2023/06/30 01:27:04;;;;;;;35.35;30.10;;;;;;;;;;626047;23;1343;-73
2023/06/30 01:27:27;;;;;;;35.65;30.08;;;;;;;;;;620972;23;1195;-72
2023/06/30 01:27:43;;;;;;;36.22;30.00;;;;;;;;;;619960;23;1694;-72
2023/06/30 01:28:16;;;;;;;35.47;30.10;;;;;;;;;;619176;23;1365;-74
2023/06/30 01:28:56;;;;;;;;;;;;;;;;;;;;;
2023/06/30 01:29:28;;;;;;;33.92;29.13;;;;;;;;;;623461;23;1003;-71
2023/06/30 01:30:14;;;;;;;35.35;30.20;;;;;;;;;;622914;23;1483;-72
2023/06/30 01:30:32;;;;;;;36.90;30.25;;;;;;;;;;621631;23;1558;-72
2023/06/30 01:30:52;;;;;;;35.80;29.85;;;;;;;;;;619410;23;1497;-73
2023/06/30 01:31:10;;;;;;;35.83;30.38;;;;;;;;;;618713;23;1448;-73
2023/06/30 01:31:36;;;;;;;36.50;30.38;;;;;;;;;;618929;23;879;-74
2023/06/30 01:31:56;;;;;;;36.05;30.08;;;;;;;;;;619889;23;1372;-72
2023/06/30 01:32:16;;;;;;;35.03;30.38;;;;;;;;;;615606;23;1314;-72
2023/06/30 01:32:36;;;;;;;35.67;30.20;;;;;;;;;;615547;23;1193;-72
2023/06/30 01:32:55;;;;;;;38.03;30.73;;;;;;;;;;619843;23;867;-72
2023/06/30 01:33:14;;;;;;;37.58;30.80;;;;;;;;;;618953;23;1168;-72
2023/06/30 01:33:43;;;;;;;35.45;30.38;;;;;;;;;;619265;23;926;-71
2023/06/30 01:34:14;;;;;;;36.03;30.85;;;;;;;;;;619178;23;1404;-71
2023/06/30 01:34:54;;;;;;;37.17;31.15;;;;;;;;;;624829;23;1123;-72
2023/06/30 01:35:10;;;;;;;38.03;31.85;;;;;;;;;;619200;23;1454;-73
2023/06/30 01:35:27;;;;;;;37.05;31.45;;;;;;;;;;622211;23;1622;-73
2023/06/30 01:35:44;;;;;;;36.03;30.75;;;;;;;;;;622416;23;1545;-72
2023/06/30 01:36:18;;;;;;;36.80;31.00;;;;;;;;;;622844;23;1356;-72
2023/06/30 01:36:34;;;;;;;37.53;31.40;;;;;;;;;;622224;23;966;-72
2023/06/30 01:36:51;;;;;;;37.35;30.83;;;;;;;;;;622038;23;1334;-72
2023/06/30 01:37:14;;;;;;;37.65;31.35;;;;;;;;;;621510;23;1159;-73
2023/06/30 01:37:30;;;;;;;39.25;30.95;;;;;;;;;;622826;23;1366;-72
2023/06/30 01:37:49;;;;;;;39.53;31.15;;;;;;;;;;617019;23;1445;-73
2023/06/30 01:38:15;;;;;;;37.15;31.33;;;;;;;;;;616516;23;1316;-75
2023/06/30 01:38:32;;;;;;;37.70;31.45;;;;;;;;;;616797;23;1333;-73
2023/06/30 01:38:48;;;;;;;38.22;30.85;;;;;;;;;;616203;23;1378;-72
2023/06/30 01:39:13;;;;;;;38.50;31.88;;;;;;;;;;616777;23;1449;-72
2023/06/30 01:39:29;;;;;;;38.42;31.63;;;;;;;;;;615750;23;1451;-71
2023/06/30 01:39:54;;;;;;;38.10;31.63;;;;;;;;;;616848;23;1419;-74
2023/06/30 01:40:13;;;;;;;38.65;32.13;;;;;;;;;;615804;23;1355;-72
2023/06/30 01:40:35;;;;;;;38.70;32.67;;;;;;;;;;616448;23;1461;-72
2023/06/30 01:40:54;;;;;;;39.00;32.53;;;;;;;;;;620094;23;1473;-73
2023/06/30 01:41:13;;;;;;;38.47;32.22;;;;;;;;;;618829;23;1508;-73
2023/06/30 01:41:53;;;;;;;39.47;32.08;;;;;;;;;;618580;23;1403;-72
2023/06/30 01:42:21;;;;;;;38.38;32.25;;;;;;;;;;618796;23;1103;-73
2023/06/30 01:42:39;;;;;;;39.20;32.35;;;;;;;;;;622746;23;907;-74
2023/06/30 01:43:39;;;;;;;39.38;32.80;;;;;;;;;;611275;23;846;-72
2023/06/30 01:43:41;;;;;;;40.60;32.45;;;;;;;;;;619060;23;1334;-72
2023/06/30 01:43:59;;;;;;;38.15;31.80;;;;;;;;;;621028;23;1050;-73
2023/06/30 01:44:15;;;;;;;37.80;31.67;;;;;;;;;;621844;23;1534;-73
2023/06/30 01:44:31;;;;;;;39.63;32.08;;;;;;;;;;619575;23;1287;-72
2023/06/30 01:44:49;;;;;;;40.03;32.33;;;;;;;;;;620781;23;1009;-73
2023/06/30 01:45:46;;;;;;;39.72;33.03;;;;;;;;;;617886;23;717;-73
2023/06/30 01:45:49;;;;;;;40.75;31.98;;;;;;;;;;619680;23;1582;-73
2023/06/30 01:46:15;;;;;;;39.22;32.78;;;;;;;;;;617676;23;1284;-73
2023/06/30 01:46:54;;;;;;;40.30;32.75;;;;;;;;;;618723;23;1968;-73
2023/06/30 01:47:14;;;;;;;40.15;32.95;;;;;;;;;;611504;23;1491;-73
2023/06/30 01:47:31;;;;;;;39.92;33.67;;;;;;;;;;623156;23;1257;-73
2023/06/30 01:47:48;;;;;;;40.90;34.13;;;;;;;;;;622194;23;1013;-73
2023/06/30 01:48:13;;;;;;;39.83;32.97;;;;;;;;;;621762;23;1248;-72
2023/06/30 01:48:29;;;;;;;40.00;33.70;;;;;;;;;;620259;23;875;-72
2023/06/30 01:48:49;;;;;;;40.63;33.50;;;;;;;;;;617072;23;1356;-72
2023/06/30 01:49:08;;;;;;;40.33;32.75;;;;;;;;;;616006;23;1225;-73
2023/06/30 01:49:28;;;;;;;40.67;32.85;;;;;;;;;;615942;23;1483;-72
2023/06/30 01:49:45;;;;;;;40.58;33.45;;;;;;;;;;615556;23;1546;-73
2023/06/30 01:50:06;;;;;;;39.42;33.72;;;;;;;;;;615134;23;1336;-72
2023/06/30 01:50:23;;;;;;;39.63;33.13;;;;;;;;;;613971;23;1015;-72
2023/06/30 01:50:39;;;;;;;40.17;32.47;;;;;;;;;;614082;23;1362;-72
2023/06/30 01:50:56;;;;;;;39.85;33.05;;;;;;;;;;611570;23;1411;-72
2023/06/30 01:51:16;;;;;;;40.08;33.45;;;;;;;;;;612163;23;1376;-73
2023/06/30 01:51:32;;;;;;;42.10;33.60;;;;;;;;;;614209;23;1344;-72
2023/06/30 01:51:48;;;;;;;43.08;34.10;;;;;;;;;;614303;23;1546;-73
2023/06/30 01:52:05;;;;;;;42.20;33.67;;;;;;;;;;609853;23;1320;-72
2023/06/30 01:52:21;;;;;;;42.60;33.50;;;;;;;;;;613061;23;1273;-73
2023/06/30 01:52:57;;;;;;;42.85;33.80;;;;;;;;;;614342;23;1115;-72
2023/06/30 01:53:14;;;;;;;40.63;33.22;;;;;;;;;;612055;23;1210;-72
2023/06/30 01:53:43;;;;;;;40.27;33.03;;;;;;;;;;614021;23;1615;-74
2023/06/30 01:53:59;;;;;;;40.45;33.45;;;;;;;;;;616254;23;1433;-73
2023/06/30 01:54:15;;;;;;;41.05;33.53;;;;;;;;;;615634;23;1561;-73
2023/06/30 01:54:34;;;;;;;40.85;33.33;;;;;;;;;;621627;23;1251;-72
2023/06/30 01:54:50;;;;;;;40.17;32.90;;;;;;;;;;623295;23;1451;-73
2023/06/30 01:55:10;;;;;;;41.20;33.63;;;;;;;;;;618560;23;1469;-73
2023/06/30 01:55:26;;;;;;;42.35;33.83;;;;;;;;;;616540;23;903;-71
2023/06/30 01:55:49;;;;;;;43.00;34.55;;;;;;;;;;616875;23;1268;-72
2023/06/30 01:56:14;;;;;;;42.28;34.25;;;;;;;;;;619715;23;1397;-73
2023/06/30 01:56:30;;;;;;;43.15;35.08;;;;;;;;;;618137;23;1399;-73
2023/06/30 01:56:49;;;;;;;41.17;34.72;;;;;;;;;;617546;23;1440;-72
2023/06/30 01:57:15;;;;;;;42.92;35.22;;;;;;;;;;616351;23;1419;-73
2023/06/30 01:57:31;;;;;;;42.63;35.40;;;;;;;;;;616891;23;1253;-73
2023/06/30 01:57:47;;;;;;;43.25;34.63;;;;;;;;;;617040;23;995;-72
2023/06/30 01:58:11;;;;;;;44.53;34.92;;;;;;;;;;620095;23;1308;-74
2023/06/30 01:58:28;;;;;;;44.50;35.05;;;;;;;;;;620426;23;899;-73
2023/06/30 01:58:47;;;;;;;42.85;34.85;;;;;;;;;;615979;23;1356;-72
2023/06/30 01:59:23;;;;;;;42.70;34.83;;;;;;;;;;620193;23;871;-73
2023/06/30 01:59:39;;;;;;;44.53;35.28;;;;;;;;;;620809;23;1438;-72
2023/06/30 01:59:55;;;;;;;45.05;35.75;;;;;;;;;;621392;23;1407;-73
2023/06/30 02:00:14;;;;;;;44.88;36.00;;;;;;;;;;618429;23;1421;-74
2023/06/30 02:00:34;;;;;;;43.38;34.45;;;;;;;;;;620500;23;1327;-73
2023/06/30 02:00:50;;;;;;;43.78;34.40;;;;;;;;;;620330;23;1326;-74
2023/06/30 02:01:12;;;;;;;43.85;35.20;;;;;;;;;;616556;23;1421;-74
2023/06/30 02:01:31;;;;;;;45.00;35.83;;;;;;;;;;617761;23;1588;-73
2023/06/30 02:01:48;;;;;;;45.33;35.90;;;;;;;;;;617715;23;1618;-73
2023/06/30 02:02:07;;;;;;;45.72;36.28;;;;;;;;;;616814;23;1494;-73
2023/06/30 02:02:23;;;;;;;46.00;36.25;;;;;;;;;;612911;23;1229;-72
2023/06/30 02:02:40;;;;;;;43.67;35.80;;;;;;;;;;614986;23;1375;-73
2023/06/30 02:02:57;;;;;;;44.80;36.00;;;;;;;;;;614926;23;1605;-73
2023/06/30 02:03:13;;;;;;;45.75;35.63;;;;;;;;;;612440;23;915;-73
2023/06/30 02:03:29;;;;;;;44.77;35.23;;;;;;;;;;618219;23;1550;-74
2023/06/30 02:03:47;;;;;;;44.38;35.53;;;;;;;;;;619713;23;1253;-74
2023/06/30 02:04:11;;;;;;;44.22;35.20;;;;;;;;;;619426;23;1261;-74
2023/06/30 02:04:27;;;;;;;44.83;35.10;;;;;;;;;;617900;23;1572;-73
2023/06/30 02:04:45;;;;;;;43.80;34.83;;;;;;;;;;614611;23;1193;-74
2023/06/30 02:05:13;;;;;;;43.40;34.80;;;;;;;;;;611453;23;1257;-72
2023/06/30 02:05:33;;;;;;;46.00;35.70;;;;;;;;;;613630;23;1442;-73
2023/06/30 02:05:49;;;;;;;46.15;35.40;;;;;;;;;;616067;23;1173;-73
2023/06/30 02:06:08;;;;;;;45.05;34.67;;;;;;;;;;619768;23;1079;-73
2023/06/30 02:06:26;;;;;;;44.65;35.08;;;;;;;;;;617057;23;1136;-74
2023/06/30 02:06:45;;;;;;;43.97;34.65;;;;;;;;;;618152;23;2132;-73
2023/06/30 02:07:01;;;;;;;43.47;32.95;;;;;;;;;;619921;23;1327;-73
2023/06/30 02:07:17;;;;;;;42.42;32.15;;;;;;;;;;614705;23;1454;-73
2023/06/30 02:07:33;;;;;;;39.50;31.15;;;;;;;;;;614057;23;1355;-74
2023/06/30 02:07:49;;;;;;;38.30;30.48;;;;;;;;;;615697;23;848;-73
2023/06/30 02:08:06;;;;;;;39.97;30.75;;;;;;;;;;616179;23;1184;-74
2023/06/30 02:08:42;;;;;;;38.30;30.30;;;;;;;;;;611113;23;1195;-72
2023/06/30 02:09:11;;;;;;;31.05;24.48;;;;;;;;;;617198;23;1028;-73
2023/06/30 02:09:27;;;;;;;30.08;24.65;;;;;;;;;;619207;23;816;-73
2023/06/30 02:09:58;;;;;;;28.63;23.13;;;;;;;;;;613814;23;1308;-72
2023/06/30 02:10:20;;;;;;;26.10;21.48;;;;;;;;;;615199;23;1395;-72
2023/06/30 02:10:59;;;;;;;23.88;19.77;;;;;;;;;;610531;23;1732;-73
2023/06/30 02:11:15;;;;;;;25.77;20.10;;;;;;;;;;615235;23;1370;-75
2023/06/30 02:11:31;;;;;;;24.33;19.90;;;;;;;;;;614918;23;1467;-73
2023/06/30 02:11:47;;;;;;;23.30;19.13;;;;;;;;;;614775;23;1325;-73
2023/06/30 02:12:21;;;;;;;21.58;18.02;;;;;;;;;;615022;23;945;-73
2023/06/30 02:12:36;;;;;;;20.60;17.15;;;;;;;;;;617557;23;840;-73
2023/06/30 02:12:53;;;;;;;20.80;16.77;;;;;;;;;;617413;23;816;-73
2023/06/30 02:13:14;;;;;;;20.65;16.50;;;;;;;;;;616717;23;1398;-73
2023/06/30 02:13:30;;;;;;;18.47;15.00;;;;;;;;;;621082;23;1267;-73
2023/06/30 02:13:46;;;;;;;15.93;13.45;;;;;;;;;;622744;23;1261;-73
2023/06/30 02:14:08;;;;;;;15.45;13.25;;;;;;;;;;623618;23;1465;-73
2023/06/30 02:14:24;;;;;;;16.55;13.18;;;;;;;;;;619738;23;1343;-73
2023/06/30 02:14:39;;;;;;;16.65;12.82;;;;;;;;;;620989;23;1452;-73
2023/06/30 02:14:56;;;;;;;15.50;12.32;;;;;;;;;;618955;23;1311;-73
2023/06/30 02:15:12;;;;;;;14.93;11.90;;;;;;;;;;618462;23;856;-72
2023/06/30 02:15:28;;;;;;;14.75;11.60;;;;;;;;;;613680;23;1282;-73
2023/06/30 02:15:44;;;;;;;14.13;11.43;;;;;;;;;;614274;23;1479;-75
2023/06/30 02:16:00;;;;;;;13.77;10.93;;;;;;;;;;614466;23;1443;-73
2023/06/30 02:16:16;;;;;;;13.43;10.40;;;;;;;;;;613283;23;907;-74
2023/06/30 02:16:35;;;;;;;13.63;10.40;;;;;;;;;;612763;23;1420;-74
2023/06/30 02:16:53;;;;;;;13.20;10.75;;;;;;;;;;613878;23;1432;-73
2023/06/30 02:17:15;;;;;;;12.65;10.40;;;;;;;;;;612840;23;1416;-72
2023/06/30 02:17:32;;;;;;;12.95;10.13;;;;;;;;;;615110;23;1523;-73
2023/06/30 02:17:48;;;;;;;12.17;10.03;;;;;;;;;;617628;23;875;-75
2023/06/30 02:18:13;;;;;;;13.40;10.25;;;;;;;;;;616782;23;1382;-73
2023/06/30 02:18:54;;;;;;;13.02;9.90;;;;;;;;;;616371;23;1363;-73
2023/06/30 02:19:13;;;;;;;10.80;8.65;;;;;;;;;;616041;23;1293;-74
2023/06/30 02:19:29;;;;;;;9.68;8.57;;;;;;;;;;619695;23;1624;-73
2023/06/30 02:19:45;;;;;;;10.35;9.02;;;;;;;;;;620776;23;879;-73
2023/06/30 02:20:05;;;;;;;10.70;8.82;;;;;;;;;;618666;23;1221;-72
2023/06/30 02:20:21;;;;;;;10.30;7.88;;;;;;;;;;616216;23;1171;-72
2023/06/30 02:20:40;;;;;;;10.05;7.50;;;;;;;;;;617109;23;1404;-73
2023/06/30 02:20:56;;;;;;;8.30;6.82;;;;;;;;;;617699;23;1047;-73
2023/06/30 02:21:12;;;;;;;7.80;6.90;;;;;;;;;;618924;23;835;-74
2023/06/30 02:21:28;;;;;;;8.23;6.68;;;;;;;;;;616991;23;1365;-73
2023/06/30 02:21:46;;;;;;;9.38;6.70;;;;;;;;;;617517;23;1198;-73
2023/06/30 02:22:03;;;;;;;8.55;6.40;;;;;;;;;;620256;23;1463;-73
2023/06/30 02:22:19;;;;;;;6.88;5.75;;;;;;;;;;617500;23;1008;-74
2023/06/30 02:22:45;;;;;;;6.80;5.63;;;;;;;;;;619598;23;1574;-72
2023/06/30 02:23:10;;;;;;;6.25;5.50;;;;;;;;;;617500;23;1131;-73
2023/06/30 02:23:28;;;;;;;6.38;5.28;;;;;;;;;;617388;23;1236;-73